Time;durP1;ratioP1;P1;durP2;ratioP2;P2;SDS_P1;SDS_P2;PMS_P1;PMS_P2;Temp;Humidity;BMP_temperature;BMP_pressure;BME280_temperature;BME280_humidity;BME280_pressure;Samples;Min_cycle;Max_cycle;Signal;HPM_P1;HPM_P2
2022/01/24 00:01:17;;;;;;;28.42;24.27;;;6.90;99.90;;;;;;5113727;28;20437;-81
2022/01/24 00:03:43;;;;;;;25.73;19.80;;;7.00;99.90;;;;;;5114722;28;20223;-78
2022/01/24 00:06:14;;;;;;;29.33;19.90;;;7.00;99.90;;;;;;5114779;28;20210;-79
2022/01/24 00:08:42;;;;;;;25.23;19.37;;;7.00;99.90;;;;;;5114533;27;20200;-77
2022/01/24 00:11:12;;;;;;;26.77;19.43;;;7.10;99.90;;;;;;5114228;28;20204;-80
2022/01/24 00:16:34;;;;;;;29.77;20.00;;;6.90;99.90;;;;;;5114297;28;20192;-80
2022/01/24 00:27:14;;;;;;;26.80;19.90;;;6.90;99.90;;;;;;5114154;28;20288;-78
2022/01/24 00:29:42;;;;;;;28.83;20.30;;;6.90;99.90;;;;;;5113775;28;20197;-81
2022/01/24 00:32:09;;;;;;;29.00;19.80;;;6.90;99.90;;;;;;5114449;28;20264;-78
2022/01/24 00:34:36;;;;;;;24.63;18.80;;;6.90;99.90;;;;;;5113645;27;20207;-79
2022/01/24 00:37:04;;;;;;;27.80;19.17;;;6.90;99.90;;;;;;5114255;28;20215;-79
2022/01/24 00:39:31;;;;;;;24.90;18.13;;;6.60;99.90;;;;;;5114066;28;20201;-78
2022/01/24 00:42:14;;;;;;;24.63;18.57;;;6.60;99.90;;;;;;5113678;28;20240;-78
2022/01/24 00:44:46;;;;;;;25.97;18.23;;;6.70;99.90;;;;;;5113513;28;20565;-77
2022/01/24 00:47:19;;;;;;;28.92;23.08;;;6.50;99.90;;;;;;5112937;28;20484;-79
2022/01/24 00:52:57;;;;;;;24.57;19.07;;;6.50;99.90;;;;;;5113451;28;20225;-78
2022/01/24 00:55:24;;;;;;;26.50;19.40;;;6.60;99.90;;;;;;5113503;28;20241;-79
2022/01/24 00:57:51;;;;;;;24.03;18.43;;;6.60;99.90;;;;;;5113567;27;20196;-77
2022/01/24 01:00:19;;;;;;;23.60;17.93;;;6.60;99.90;;;;;;5113528;28;20188;-79
2022/01/24 01:02:47;;;;;;;26.70;19.17;;;6.40;99.90;;;;;;5113754;28;20702;-79
2022/01/24 01:05:30;;;;;;;25.43;18.77;;;6.40;99.90;;;;;;5113652;28;20189;-78
2022/01/24 01:08:12;;;;;;;22.50;17.40;;;6.30;99.90;;;;;;5113672;28;20192;-78
2022/01/24 01:18:55;;;;;;;23.23;16.33;;;6.50;99.90;;;;;;5114465;27;20225;-78
2022/01/24 01:21:22;;;;;;;22.33;15.87;;;6.30;99.90;;;;;;5113133;28;20224;-77
2022/01/24 01:23:54;;;;;;;21.07;17.03;;;6.30;99.90;;;;;;5112735;28;20200;-79
2022/01/24 01:26:27;;;;;;;22.30;17.00;;;6.40;99.90;;;;;;5113187;28;20215;-80
2022/01/24 01:28:59;;;;;;;20.73;17.07;;;6.30;99.90;;;;;;5113190;28;20220;-79
2022/01/24 01:31:38;;;;;;;19.90;15.67;;;6.40;99.90;;;;;;5113151;28;20239;-78
2022/01/24 01:34:16;;;;;;;22.73;20.02;;;6.40;99.90;;;;;;5112376;28;20489;-76
2022/01/24 01:53:47;;;;;;;22.57;17.07;;;6.50;99.90;;;;;;5112283;28;20207;-77
2022/01/24 01:56:14;;;;;;;20.50;15.90;;;6.50;99.90;;;;;;5112752;28;20192;-79
2022/01/24 01:58:41;;;;;;;19.47;16.10;;;6.40;99.90;;;;;;5112624;28;20195;-79
2022/01/24 02:01:08;;;;;;;22.27;15.27;;;6.40;99.90;;;;;;5112645;28;20636;-79
2022/01/24 02:03:38;;;;;;;19.60;16.00;;;6.50;99.90;;;;;;5112544;28;20193;-77
2022/01/24 02:06:05;;;;;;;20.50;15.80;;;6.30;99.90;;;;;;5112707;28;20197;-76
2022/01/24 02:08:32;;;;;;;18.43;14.40;;;6.20;99.90;;;;;;5112491;28;20200;-78
2022/01/24 02:11:00;;;;;;;17.67;14.57;;;6.10;99.90;;;;;;5112866;28;20193;-80
2022/01/24 02:13:29;;;;;;;20.03;15.60;;;5.90;99.90;;;;;;5112535;27;20291;-78
2022/01/24 02:16:05;;;;;;;18.57;14.97;;;6.00;99.90;;;;;;5112471;28;20201;-77
2022/01/24 02:18:38;;;;;;;18.43;15.33;;;6.10;99.90;;;;;;5111467;28;20204;-79
2022/01/24 02:21:26;;;;;;;18.10;15.00;;;6.20;99.90;;;;;;5112387;28;20698;-77
2022/01/24 02:23:58;;;;;;;21.38;19.25;;;6.30;99.90;;;;;;5110813;28;20780;-76
2022/01/24 02:26:25;;;;;;;19.87;16.23;;;6.40;99.90;;;;;;5111761;28;20213;-78
2022/01/24 02:29:03;;;;;;;21.10;16.00;;;6.40;99.90;;;;;;5112175;27;20221;-76
2022/01/24 02:31:51;;;;;;;19.40;15.33;;;6.40;99.90;;;;;;5112279;28;20208;-77
2022/01/24 02:34:28;;;;;;;17.37;15.40;;;6.40;99.90;;;;;;5112165;28;20205;-79
2022/01/24 02:36:56;;;;;;;17.93;14.53;;;6.20;99.90;;;;;;5111823;28;20578;-76
2022/01/24 02:39:44;;;;;;;19.43;14.70;;;6.20;99.90;;;;;;5112360;28;20201;-79
2022/01/24 02:51:01;;;;;;;18.90;15.77;;;6.00;99.90;;;;;;5115982;28;20241;-76
2022/01/24 02:53:30;;;;;;;21.07;15.47;;;6.20;99.90;;;;;;5115695;28;20207;-78
2022/01/24 02:55:58;;;;;;;18.00;14.20;;;6.40;99.90;;;;;;5115829;28;20193;-77
2022/01/24 02:58:25;;;;;;;18.80;14.67;;;6.40;99.90;;;;;;5115755;28;20204;-77
2022/01/24 03:00:53;;;;;;;18.73;14.60;;;6.30;99.90;;;;;;5115626;28;20224;-78
2022/01/24 03:03:21;;;;;;;17.73;14.80;;;6.30;99.90;;;;;;5115724;28;20201;-81
2022/01/24 03:05:48;;;;;;;18.80;14.23;;;6.40;99.90;;;;;;5115356;28;20192;-80
2022/01/24 03:08:15;;;;;;;17.97;14.63;;;6.50;99.90;;;;;;5115494;28;20231;-78
2022/01/24 03:10:45;;;;;;;19.27;15.53;;;6.40;99.90;;;;;;5115578;28;20271;-78
2022/01/24 03:13:32;;;;;;;18.70;14.60;;;6.30;99.90;;;;;;5115740;28;20212;-79
2022/01/24 03:16:01;;;;;;;23.30;16.20;;;6.10;99.90;;;;;;5115418;28;20290;-78
2022/01/24 03:18:29;;;;;;;17.53;15.37;;;6.10;99.90;;;;;;5115609;28;20199;-78
2022/01/24 03:20:57;;;;;;;18.00;13.40;;;6.20;99.90;;;;;;5115127;28;20192;-76
2022/01/24 03:23:25;;;;;;;16.50;13.70;;;6.30;99.90;;;;;;5115265;28;20211;-79
2022/01/24 03:25:52;;;;;;;18.03;14.40;;;6.20;99.90;;;;;;5114675;28;20664;-78
2022/01/24 03:28:20;;;;;;;18.10;14.70;;;6.20;99.90;;;;;;5115673;28;20225;-81
2022/01/24 03:30:47;;;;;;;18.53;14.73;;;6.20;99.90;;;;;;5115393;28;20254;-77
2022/01/24 03:33:14;;;;;;;19.43;14.83;;;6.30;99.90;;;;;;5115431;28;20203;-80
2022/01/24 03:35:43;;;;;;;18.67;14.50;;;6.30;99.90;;;;;;5114968;27;20618;-77
2022/01/24 03:38:11;;;;;;;18.77;14.63;;;6.30;99.90;;;;;;5116437;28;20203;-77
2022/01/24 03:40:38;;;;;;;17.07;14.23;;;6.30;99.90;;;;;;5115436;28;20208;-78
2022/01/24 03:43:05;;;;;;;17.10;14.30;;;6.30;99.90;;;;;;5115379;28;20226;-80
2022/01/24 03:45:43;;;;;;;18.43;14.63;;;6.30;99.90;;;;;;5114578;28;20200;-78
2022/01/24 03:48:22;;;;;;;18.77;15.00;;;6.10;99.90;;;;;;5113399;28;20207;-79
2022/01/24 03:50:50;;;;;;;17.93;14.40;;;6.10;99.90;;;;;;5112869;28;20291;-77
2022/01/24 03:53:16;;;;;;;19.97;14.67;;;6.20;99.90;;;;;;5114339;28;20607;-80
2022/01/24 03:55:43;;;;;;;21.30;14.07;;;6.10;99.90;;;;;;5114360;28;20189;-78
2022/01/24 03:58:10;;;;;;;21.50;15.07;;;6.10;99.90;;;;;;5114217;28;20216;-77
2022/01/24 04:00:38;;;;;;;21.33;15.07;;;6.10;99.90;;;;;;5113880;28;20562;-77
2022/01/24 04:03:05;;;;;;;25.98;17.20;;;6.10;99.90;;;;;;5114800;28;20551;-77
2022/01/24 04:05:34;;;;;;;20.10;15.60;;;5.90;99.90;;;;;;5114563;28;20200;-83
2022/01/24 04:08:01;;;;;;;24.07;14.63;;;5.80;99.90;;;;;;5114962;28;20200;-79
2022/01/24 04:10:39;;;;;;;18.47;14.50;;;5.80;99.90;;;;;;5114617;28;20572;-78
2022/01/24 04:13:09;;;;;;;19.40;14.07;;;5.90;99.90;;;;;;5114797;28;20196;-81
2022/01/24 04:15:46;;;;;;;19.57;14.50;;;6.00;99.90;;;;;;5114633;28;20304;-78
2022/01/24 04:18:32;;;;;;;18.63;14.13;;;5.90;99.90;;;;;;5114580;28;20302;-79
2022/01/24 04:23:47;;;;;;;19.83;14.87;;;6.00;99.90;;;;;;5114632;28;20204;-78
2022/01/24 04:26:14;;;;;;;19.13;13.80;;;6.00;99.90;;;;;;5113451;28;20265;-79
2022/01/24 04:28:41;;;;;;;19.73;16.13;;;5.80;99.90;;;;;;5114037;28;20425;-78
2022/01/24 04:31:09;;;;;;;18.40;13.67;;;5.80;99.90;;;;;;5114319;28;20208;-78
2022/01/24 04:33:36;;;;;;;20.93;15.63;;;5.90;99.90;;;;;;5113859;28;20208;-79
2022/01/24 04:36:04;;;;;;;18.70;14.87;;;5.90;99.90;;;;;;5113891;28;20212;-79
2022/01/24 04:38:31;;;;;;;20.30;14.30;;;6.00;99.90;;;;;;5114171;28;20211;-78
2022/01/24 04:41:03;;;;;;;20.43;14.50;;;5.90;99.90;;;;;;5114109;28;20197;-79
2022/01/24 04:43:47;;;;;;;21.70;14.80;;;5.80;99.90;;;;;;5114089;28;20722;-80
2022/01/24 04:46:29;;;;;;;21.70;14.10;;;5.40;99.90;;;;;;5113705;27;20195;-77
2022/01/24 04:51:54;;;;;;;23.70;14.77;;;5.20;99.90;;;;;;5113779;28;20325;-81
2022/01/24 04:56:57;;;;;;;25.58;19.60;;;5.60;99.90;;;;;;5112926;28;20418;-80
2022/01/24 04:59:24;;;;;;;20.57;15.63;;;6.10;99.90;;;;;;5113933;28;20197;-80
2022/01/24 05:01:52;;;;;;;24.50;15.67;;;6.00;99.90;;;;;;5113796;28;20231;-78
2022/01/24 05:04:19;;;;;;;19.57;14.47;;;5.90;99.90;;;;;;5113891;28;20200;-79
2022/01/24 05:06:46;;;;;;;24.37;15.27;;;5.80;99.90;;;;;;5113605;28;20208;-76
2022/01/24 05:09:13;;;;;;;21.40;14.93;;;5.70;99.90;;;;;;5113099;28;20283;-78
2022/01/24 05:11:47;;;;;;;20.93;14.93;;;5.50;99.90;;;;;;5112492;28;20204;-80
2022/01/24 05:25:14;;;;;;;21.60;16.80;;;5.00;99.90;;;;;;5113241;28;20204;-79
2022/01/24 05:27:41;;;;;;;21.23;16.67;;;5.30;99.90;;;;;;5112419;28;20228;-80
2022/01/24 05:30:08;;;;;;;20.53;15.23;;;5.30;99.90;;;;;;5113141;28;20211;-78
2022/01/24 05:32:38;;;;;;;23.23;16.73;;;5.30;99.90;;;;;;5113238;28;20291;-76
2022/01/24 05:35:05;;;;;;;21.37;15.87;;;5.30;99.90;;;;;;5113120;28;20574;-76
2022/01/24 05:37:32;;;;;;;21.50;16.20;;;5.30;99.90;;;;;;5113255;28;20196;-77
2022/01/24 05:39:58;;;;;;;22.93;16.63;;;5.10;99.90;;;;;;5113266;28;20203;-77
2022/01/24 05:42:25;;;;;;;23.13;17.10;;;5.00;99.90;;;;;;5112856;28;20228;-78
2022/01/24 05:44:53;;;;;;;24.40;16.77;;;4.90;99.90;;;;;;5113140;28;20200;-79
2022/01/24 05:47:20;;;;;;;22.07;16.30;;;4.90;99.90;;;;;;5112681;28;20233;-78
2022/01/24 05:49:48;;;;;;;24.60;16.30;;;4.70;99.90;;;;;;5113398;28;20204;-77
2022/01/24 05:52:15;;;;;;;23.37;16.57;;;4.70;99.90;;;;;;5113561;28;20216;-79
2022/01/24 05:54:43;;;;;;;21.53;16.23;;;4.70;99.90;;;;;;5113517;28;20207;-78
2022/01/24 05:57:11;;;;;;;22.40;16.40;;;4.60;99.90;;;;;;5113329;28;20216;-77
2022/01/24 05:59:38;;;;;;;21.90;16.23;;;4.60;99.90;;;;;;5113034;28;20199;-78
2022/01/24 06:02:06;;;;;;;23.23;16.83;;;4.50;99.90;;;;;;5120689;28;20227;-79
2022/01/24 06:04:33;;;;;;;23.93;16.77;;;4.50;99.90;;;;;;5133426;27;20208;-80
2022/01/24 06:07:01;;;;;;;24.57;17.70;;;4.50;99.90;;;;;;5132141;27;20654;-79
2022/01/24 06:09:28;;;;;;;26.37;17.47;;;4.40;99.90;;;;;;5133985;27;20208;-78
2022/01/24 06:11:55;;;;;;;25.70;17.47;;;4.30;99.90;;;;;;5134106;27;20188;-82
2022/01/24 06:14:21;;;;;;;25.00;17.67;;;4.20;99.90;;;;;;5133365;27;20204;-82
2022/01/24 06:16:50;;;;;;;28.50;17.43;;;4.20;99.90;;;;;;5133552;27;20654;-77
2022/01/24 06:19:17;;;;;;;22.20;16.33;;;4.10;99.90;;;;;;5133540;27;20454;-78
2022/01/24 06:21:45;;;;;;;22.97;16.73;;;4.00;99.90;;;;;;5133740;27;20478;-80
2022/01/24 06:24:14;;;;;;;23.60;16.83;;;3.90;99.90;;;;;;5137058;27;20790;-82
2022/01/24 06:26:43;;;;;;;24.37;16.80;;;3.80;99.90;;;;;;5138339;27;20192;-80
2022/01/24 06:29:10;;;;;;;24.67;17.17;;;3.80;99.90;;;;;;5118746;27;20469;-79
2022/01/24 06:31:38;;;;;;;26.83;16.83;;;3.80;99.90;;;;;;5117082;28;20440;-79
2022/01/24 06:34:07;;;;;;;26.77;17.07;;;3.80;99.90;;;;;;5116515;27;20436;-79
2022/01/24 06:36:34;;;;;;;25.03;15.83;;;3.80;99.90;;;;;;5117180;27;20456;-81
2022/01/24 06:39:05;;;;;;;23.03;16.40;;;3.70;99.90;;;;;;5116817;27;20424;-79
2022/01/24 06:41:35;;;;;;;23.20;16.03;;;3.70;99.90;;;;;;5116596;28;20462;-79
2022/01/24 06:44:03;;;;;;;23.80;16.67;;;3.60;99.90;;;;;;5116455;28;20481;-80
2022/01/24 06:46:30;;;;;;;29.40;17.73;;;3.50;99.90;;;;;;5116476;28;20455;-80
2022/01/24 06:48:57;;;;;;;25.47;18.37;;;3.50;99.90;;;;;;5116484;27;20453;-79
2022/01/24 06:51:24;;;;;;;29.53;18.13;;;3.40;99.90;;;;;;5116575;27;20441;-79
2022/01/24 06:53:51;;;;;;;26.33;17.80;;;3.40;99.90;;;;;;5116044;27;20421;-79
2022/01/24 06:56:18;;;;;;;27.77;17.27;;;3.20;99.90;;;;;;5116023;28;20464;-78
2022/01/24 06:58:47;;;;;;;28.37;17.73;;;3.30;99.90;;;;;;5115768;28;20927;-80
2022/01/24 07:01:14;;;;;;;33.30;18.10;;;3.30;99.90;;;;;;5116393;28;20429;-77
2022/01/24 07:03:41;;;;;;;36.47;18.60;;;3.20;99.90;;;;;;5118915;27;20479;-79
2022/01/24 07:06:08;;;;;;;26.83;17.97;;;3.20;99.90;;;;;;5116052;28;20436;-79
2022/01/24 07:08:35;;;;;;;25.30;17.70;;;3.20;99.90;;;;;;5124061;27;20545;-79
2022/01/24 07:11:02;;;;;;;26.67;17.60;;;3.10;99.90;;;;;;5118705;27;20805;-80
2022/01/24 07:13:28;;;;;;;28.30;17.30;;;3.00;99.90;;;;;;5116703;27;20444;-82
2022/01/24 07:16:02;;;;;;;28.07;18.23;;;3.00;99.90;;;;;;5116530;28;20451;-85
2022/01/24 07:21:13;;;;;;;29.13;17.87;;;3.00;99.90;;;;;;5119336;28;20749;-86
2022/01/24 07:23:40;;;;;;;31.97;19.93;;;3.00;99.90;;;;;;5118766;28;20480;-85
2022/01/24 07:26:08;;;;;;;32.63;19.57;;;3.10;99.90;;;;;;5120166;28;20469;-87
2022/01/24 07:28:35;;;;;;;28.83;19.20;;;3.00;99.90;;;;;;5119072;28;20859;-84
2022/01/24 07:31:04;;;;;;;31.57;20.40;;;3.00;99.90;;;;;;5119640;28;20433;-85
2022/01/24 07:33:31;;;;;;;28.70;19.17;;;3.00;99.90;;;;;;5119246;27;20449;-82
2022/01/24 07:35:58;;;;;;;33.53;19.03;;;2.90;99.90;;;;;;5119224;27;20448;-82
2022/01/24 07:38:25;;;;;;;28.17;18.87;;;2.90;99.90;;;;;;5120108;27;20452;-84
2022/01/24 07:40:54;;;;;;;33.10;20.67;;;2.90;99.90;;;;;;5119087;27;20437;-84
2022/01/24 07:43:21;;;;;;;33.33;22.00;;;2.90;99.90;;;;;;5118633;28;20513;-85
2022/01/24 07:45:49;;;;;;;30.40;20.10;;;2.90;99.90;;;;;;5118769;28;20219;-85
2022/01/24 07:48:19;;;;;;;36.67;20.70;;;2.90;99.90;;;;;;5118427;27;20449;-81
2022/01/24 07:50:47;;;;;;;34.07;20.73;;;2.80;99.90;;;;;;5118915;28;20452;-83
2022/01/24 07:53:16;;;;;;;31.80;19.47;;;2.80;99.90;;;;;;5119053;27;20500;-84
2022/01/24 07:55:43;;;;;;;31.10;19.70;;;2.70;99.90;;;;;;5118182;28;20441;-85
2022/01/24 07:58:10;;;;;;;32.70;20.07;;;2.80;99.90;;;;;;5119321;27;20448;-85
2022/01/24 08:00:39;;;;;;;33.30;20.40;;;2.90;99.90;;;;;;5119076;28;20730;-86
2022/01/24 08:03:06;;;;;;;36.57;20.37;;;3.00;99.90;;;;;;5118004;28;20485;-84
2022/01/24 08:05:36;;;;;;;29.07;18.87;;;2.90;99.90;;;;;;5116864;27;20441;-82
2022/01/24 08:08:05;;;;;;;29.30;20.37;;;3.00;99.90;;;;;;5117364;28;20445;-82
2022/01/24 08:10:32;;;;;;;32.13;20.47;;;2.90;99.90;;;;;;5118196;28;20436;-85
2022/01/24 08:12:59;;;;;;;33.85;21.02;;;2.90;99.90;;;;;;5118436;28;20425;-81
2022/01/24 08:15:25;;;;;;;31.03;20.17;;;3.00;99.90;;;;;;5118288;28;20195;-83
2022/01/24 08:17:53;;;;;;;32.17;21.10;;;3.00;99.90;;;;;;5117153;27;20804;-81
2022/01/24 08:20:19;;;;;;;35.93;21.03;;;3.00;99.90;;;;;;5116660;27;20463;-84
2022/01/24 08:22:48;;;;;;;37.27;21.83;;;2.90;99.90;;;;;;5117545;28;20819;-82
2022/01/24 08:25:16;;;;;;;32.13;20.03;;;2.90;99.90;;;;;;5116408;28;20819;-83
2022/01/24 08:27:46;;;;;;;33.63;21.63;;;3.10;99.90;;;;;;5120703;27;20456;-83
2022/01/24 08:30:16;;;;;;;33.67;19.50;;;3.00;99.90;;;;;;5132701;27;20440;-84
2022/01/24 08:32:46;;;;;;;35.60;21.07;;;3.10;99.90;;;;;;5135323;27;20542;-81
2022/01/24 08:35:13;;;;;;;34.33;21.23;;;3.20;99.90;;;;;;5135114;27;20497;-83
2022/01/24 08:37:41;;;;;;;34.67;22.80;;;3.10;99.90;;;;;;5134416;27;20443;-81
2022/01/24 08:40:19;;;;;;;32.50;20.27;;;3.20;99.90;;;;;;5135109;27;20943;-82
2022/01/24 08:42:57;;;;;;;32.13;20.97;;;3.20;99.90;;;;;;5135433;27;20467;-91
2022/01/24 08:45:50;;;;;;;35.10;21.73;;;3.20;99.90;;;;;;5136307;27;20911;-91
2022/01/24 08:48:19;;;;;;;35.27;22.50;;;3.30;99.90;;;;;;5136460;27;20941;-87
2022/01/24 08:50:49;;;;;;;31.83;21.40;;;3.20;99.90;;;;;;5136341;27;20452;-82
2022/01/24 08:53:16;;;;;;;33.13;21.37;;;3.20;99.90;;;;;;5136243;27;20853;-85
2022/01/24 08:55:47;;;;;;;39.90;22.30;;;3.40;99.90;;;;;;5135563;27;20926;-91
2022/01/24 08:58:15;;;;;;;37.27;21.97;;;3.50;99.90;;;;;;5136538;27;20472;-89
2022/01/24 09:00:43;;;;;;;33.10;22.33;;;3.50;99.90;;;;;;5135544;27;20444;-90
2022/01/24 09:03:11;;;;;;;31.30;20.93;;;3.60;99.90;;;;;;5135986;27;20471;-90
2022/01/24 09:05:38;;;;;;;36.17;23.57;;;3.70;99.90;;;;;;5136055;27;20448;-88
2022/01/24 09:08:06;;;;;;;35.00;22.63;;;3.80;99.90;;;;;;5136190;27;20791;-88
2022/01/24 09:10:37;;;;;;;31.67;21.87;;;3.90;99.90;;;;;;5136074;27;20868;-89
2022/01/24 09:13:08;;;;;;;39.70;24.57;;;4.00;99.90;;;;;;5135838;27;20448;-87
2022/01/24 09:15:35;;;;;;;37.95;30.33;;;4.00;99.90;;;;;;5134852;27;20415;-86
2022/01/24 09:18:03;;;;;;;38.70;25.47;;;4.30;99.90;;;;;;5135527;27;20271;-80
2022/01/24 09:20:34;;;;;;;39.60;25.63;;;4.40;99.90;;;;;;5136573;27;20283;-81
2022/01/24 09:23:07;;;;;;;46.93;26.87;;;4.40;99.90;;;;;;5135726;27;20693;-81
2022/01/24 09:25:36;;;;;;;48.87;26.40;;;4.40;99.90;;;;;;5136395;27;20192;-87
2022/01/24 09:28:04;;;;;;;40.27;25.77;;;4.40;99.90;;;;;;5136982;27;20224;-79
2022/01/24 09:30:33;;;;;;;41.70;26.83;;;4.50;99.90;;;;;;5136274;27;20634;-83
2022/01/24 09:33:02;;;;;;;43.20;25.20;;;4.50;99.90;;;;;;5136153;27;20200;-82
2022/01/24 09:35:29;;;;;;;40.97;24.03;;;4.60;99.90;;;;;;5136548;27;20215;-84
2022/01/24 09:37:57;;;;;;;35.90;24.57;;;4.60;99.90;;;;;;5124011;27;20449;-82
2022/01/24 09:40:25;;;;;;;35.77;22.13;;;4.70;99.90;;;;;;5115470;28;20204;-87
2022/01/24 09:42:54;;;;;;;31.47;21.67;;;4.70;99.90;;;;;;5115527;28;20191;-87
2022/01/24 09:45:22;;;;;;;38.13;23.10;;;4.70;99.90;;;;;;5114975;28;20192;-86
2022/01/24 09:47:52;;;;;;;37.73;22.57;;;4.80;99.90;;;;;;5115740;27;20271;-89
2022/01/24 09:50:22;;;;;;;36.93;23.30;;;4.90;99.90;;;;;;5115565;28;20216;-84
2022/01/24 09:52:50;;;;;;;33.27;21.23;;;5.00;99.90;;;;;;5115281;28;20200;-80
2022/01/24 09:55:20;;;;;;;33.27;21.13;;;5.00;99.90;;;;;;5115761;28;20200;-83
2022/01/24 09:57:48;;;;;;;33.37;21.40;;;5.10;99.90;;;;;;5116642;28;20219;-84
2022/01/24 10:00:19;;;;;;;33.83;21.73;;;5.20;99.90;;;;;;5119804;28;20201;-81
2022/01/24 10:02:49;;;;;;;35.00;22.03;;;4.90;99.90;;;;;;5119799;27;20203;-81
2022/01/24 10:05:21;;;;;;;35.00;20.80;;;4.90;99.90;;;;;;5119127;28;20212;-84
2022/01/24 10:07:53;;;;;;;35.43;21.77;;;4.80;99.90;;;;;;5119309;27;20201;-83
2022/01/24 10:10:34;;;;;;;28.00;20.67;;;5.00;99.90;;;;;;5119615;27;20622;-85
2022/01/24 10:16:25;;;;;;;33.03;21.00;;;5.20;99.90;;;;;;5119127;28;20201;-82
2022/01/24 10:19:06;;;;;;;31.30;20.40;;;5.30;99.90;;;;;;5117615;28;20209;-81
2022/01/24 10:21:40;;;;;;;32.17;21.30;;;5.40;99.90;;;;;;5118153;27;20203;-83
2022/01/24 10:24:08;;;;;;;33.30;21.93;;;5.60;99.90;;;;;;5118834;28;20595;-81
2022/01/24 10:26:36;;;;;;;30.20;21.20;;;5.50;99.90;;;;;;5118944;28;20230;-83
2022/01/24 10:29:10;;;;;;;30.10;20.60;;;5.70;99.90;;;;;;5119060;27;20558;-81
2022/01/24 10:31:48;;;;;;;32.17;21.90;;;5.70;99.90;;;;;;5118837;28;20293;-81
2022/01/24 10:34:25;;;;;;;36.43;21.80;;;5.80;99.90;;;;;;5118637;28;20204;-82
2022/01/24 10:36:57;;;;;;;30.97;20.57;;;5.40;99.90;;;;;;5118064;28;20232;-81
2022/01/24 10:39:32;;;;;;;31.97;22.13;;;5.50;99.90;;;;;;5118741;28;20283;-85
2022/01/24 10:45:13;;;;;;;41.67;21.53;;;5.70;99.90;;;;;;5103735;27;20306;-87
2022/01/24 10:47:46;;;;;;;32.67;21.40;;;5.80;99.90;;;;;;5117564;28;20199;-82
2022/01/24 10:50:20;;;;;;;34.20;20.97;;;5.60;99.90;;;;;;5116744;27;20545;-79
2022/01/24 10:52:51;;;;;;;29.93;19.93;;;5.90;99.90;;;;;;5116631;28;20208;-81
2022/01/24 10:55:20;;;;;;;34.80;22.17;;;5.90;99.90;;;;;;5116959;28;20208;-80
2022/01/24 10:57:49;;;;;;;31.53;22.03;;;6.00;99.90;;;;;;5116763;28;20189;-81
2022/01/24 11:00:21;;;;;;;27.60;20.80;;;5.70;99.90;;;;;;5116677;28;20189;-83
2022/01/24 11:02:52;;;;;;;30.23;20.77;;;5.70;99.90;;;;;;5115857;28;20208;-85
2022/01/24 11:05:22;;;;;;;31.90;21.50;;;5.50;99.90;;;;;;5128213;27;20219;-87
2022/01/24 11:07:54;;;;;;;32.03;21.33;;;5.60;99.90;;;;;;5120039;27;20639;-82
2022/01/24 11:10:25;;;;;;;31.07;21.53;;;5.90;99.90;;;;;;5115529;28;20208;-86
2022/01/24 11:12:53;;;;;;;30.80;21.33;;;6.10;99.90;;;;;;5116521;27;20209;-79
2022/01/24 11:15:21;;;;;;;30.93;21.10;;;6.20;99.90;;;;;;5115935;28;20208;-81
2022/01/24 11:17:48;;;;;;;29.17;20.77;;;6.30;99.90;;;;;;5116326;27;20207;-85
2022/01/24 11:20:18;;;;;;;34.05;24.42;;;6.00;99.90;;;;;;5118174;27;20448;-79
2022/01/24 11:22:50;;;;;;;33.93;22.07;;;6.20;99.90;;;;;;5131642;27;20615;-80
2022/01/24 11:25:20;;;;;;;30.87;21.03;;;6.20;99.90;;;;;;5136800;27;20312;-79
2022/01/24 11:27:49;;;;;;;29.50;21.07;;;6.30;99.90;;;;;;5136912;27;20224;-84
2022/01/24 11:30:20;;;;;;;32.27;21.73;;;6.40;99.90;;;;;;5124169;27;20207;-91
2022/01/24 11:32:53;;;;;;;32.97;21.47;;;6.40;99.90;;;;;;5121988;27;20726;-87
2022/01/24 11:35:41;;;;;;;30.37;20.63;;;6.40;99.90;;;;;;5126065;27;20212;-86
2022/01/24 11:38:28;;;;;;;34.73;22.23;;;6.30;99.90;;;;;;5120873;27;20647;-85
2022/01/24 11:41:01;;;;;;;33.27;21.13;;;6.50;99.90;;;;;;5127522;27;20279;-87
2022/01/24 11:43:36;;;;;;;30.73;26.38;;;6.60;99.90;;;;;;5115363;28;20425;-88
2022/01/24 11:46:28;;;;;;;32.90;22.83;;;6.80;99.90;;;;;;5116481;28;20206;-86
2022/01/24 11:49:04;;;;;;;28.73;20.17;;;6.90;99.90;;;;;;5116335;28;20204;-87
2022/01/24 11:51:33;;;;;;;31.13;21.50;;;6.70;99.90;;;;;;5116535;27;20208;-88
2022/01/24 11:54:05;;;;;;;31.60;21.63;;;6.70;99.90;;;;;;5116226;28;20604;-88
2022/01/24 11:56:35;;;;;;;31.03;21.83;;;6.90;99.90;;;;;;5116441;28;20269;-87
2022/01/24 11:59:20;;;;;;;28.70;20.10;;;6.70;99.90;;;;;;5115914;27;20569;-90
2022/01/24 12:01:54;;;;;;;28.73;19.37;;;6.40;99.90;;;;;;5125309;27;20215;-89
2022/01/24 12:04:53;;;;;;;29.40;20.07;;;6.10;99.90;;;;;;5124208;27;20224;-88
2022/01/24 12:07:23;;;;;;;29.80;20.87;;;6.50;99.90;;;;;;5112231;28;20234;-89
2022/01/24 12:09:53;;;;;;;32.13;20.30;;;6.70;99.90;;;;;;5116315;27;20230;-89
2022/01/24 12:12:46;;;;;;;27.20;19.47;;;6.60;99.90;;;;;;5116342;28;20207;-89
2022/01/24 12:16:02;;;;;;;30.27;21.07;;;6.60;99.90;;;;;;5116486;28;20230;-89
2022/01/24 12:19:02;;;;;;;30.33;21.07;;;6.40;99.90;;;;;;5115787;28;20204;-89
2022/01/24 12:21:31;;;;;;;33.57;20.10;;;6.50;99.90;;;;;;5115490;28;20204;-90
2022/01/24 12:24:06;;;;;;;31.83;20.90;;;6.60;99.90;;;;;;5115774;27;20227;-89
2022/01/24 12:26:39;;;;;;;31.30;20.90;;;6.60;99.90;;;;;;5118396;27;20677;-90
2022/01/24 12:29:15;;;;;;;31.07;20.73;;;6.90;99.90;;;;;;5115856;28;20224;-88
2022/01/24 12:31:47;;;;;;;34.47;23.70;;;7.20;99.90;;;;;;5116215;27;20443;-87
2022/01/24 12:34:23;;;;;;;32.10;22.30;;;7.40;99.90;;;;;;5116030;27;20627;-91
2022/01/24 12:37:22;;;;;;;38.67;21.83;;;7.40;99.90;;;;;;5115751;27;20223;-89
2022/01/24 12:40:03;;;;;;;29.23;20.70;;;7.20;99.90;;;;;;5131285;27;20196;-90
2022/01/24 12:42:52;;;;;;;28.47;20.17;;;6.90;99.90;;;;;;5136404;27;20192;-88
2022/01/24 12:48:14;;;;;;;28.87;20.43;;;7.30;99.90;;;;;;5139226;27;20207;-91
2022/01/24 12:50:48;;;;;;;27.33;19.73;;;7.50;99.90;;;;;;5140676;27;20221;-88
2022/01/24 12:53:20;;;;;;;26.83;19.13;;;7.50;99.90;;;;;;5121826;27;20195;-91
2022/01/24 12:55:58;;;;;;;32.37;20.90;;;7.30;99.90;;;;;;5128236;27;20204;-88
2022/01/24 12:58:31;;;;;;;31.02;22.38;;;7.30;99.90;;;;;;5116026;27;20433;-88
2022/01/24 13:00:59;;;;;;;28.93;20.43;;;7.50;99.90;;;;;;5114381;28;20200;-78
2022/01/24 13:03:27;;;;;;;31.53;20.90;;;7.20;99.90;;;;;;5114872;28;20196;-86
2022/01/24 13:05:54;;;;;;;28.43;19.97;;;7.10;99.90;;;;;;5121441;27;20224;-89
2022/01/24 13:08:21;;;;;;;29.87;19.97;;;7.00;99.90;;;;;;5120692;27;20577;-90
2022/01/24 13:10:48;;;;;;;25.63;18.80;;;7.30;99.90;;;;;;5120434;27;20208;-89
2022/01/24 13:13:16;;;;;;;27.10;19.20;;;7.40;99.90;;;;;;5121662;27;20197;-88
2022/01/24 13:21:22;;;;;;;27.70;19.37;;;7.30;99.90;;;;;;5113941;28;20204;-90
2022/01/24 13:23:55;;;;;;;28.70;19.57;;;7.30;99.90;;;;;;5114065;27;20204;-88
2022/01/24 13:26:23;;;;;;;29.63;22.75;;;7.30;99.90;;;;;;5114137;27;20414;-90
2022/01/24 13:28:50;;;;;;;29.53;20.97;;;7.70;99.90;;;;;;5114510;27;20587;-87
2022/01/24 13:31:17;;;;;;;38.50;22.20;;;7.20;99.90;;;;;;5114977;27;20200;-88
2022/01/24 13:33:46;;;;;;;32.20;21.83;;;7.50;99.90;;;;;;5114501;27;20204;-89
2022/01/24 13:36:16;;;;;;;35.20;23.13;;;7.60;99.90;;;;;;5114991;27;20286;-91
2022/01/24 13:38:45;;;;;;;29.47;20.43;;;7.40;99.90;;;;;;5116796;27;20208;-90
2022/01/24 13:41:14;;;;;;;39.40;21.07;;;7.50;99.90;;;;;;5137021;27;20200;-93
2022/01/24 13:43:51;;;;;;;32.63;20.57;;;7.80;99.90;;;;;;5136896;27;20202;-91
2022/01/24 13:46:20;;;;;;;33.87;21.47;;;7.60;99.90;;;;;;5137079;27;20200;-88
2022/01/24 13:48:52;;;;;;;28.77;20.90;;;7.30;99.90;;;;;;5137099;27;20203;-91
2022/01/24 13:51:21;;;;;;;35.90;20.63;;;7.10;99.90;;;;;;5137693;27;20188;-88
2022/01/24 13:53:55;;;;;;;33.47;22.00;;;7.10;99.90;;;;;;5144141;27;20215;-88
2022/01/24 13:56:26;;;;;;;30.97;21.13;;;7.30;99.90;;;;;;5155928;27;20210;-90
2022/01/24 13:59:05;;;;;;;31.03;19.97;;;7.50;99.90;;;;;;5156216;27;20203;-90
2022/01/24 14:01:32;;;;;;;33.37;20.90;;;7.50;99.90;;;;;;5156011;27;20214;-86
2022/01/24 14:04:02;;;;;;;29.20;20.97;;;7.20;99.90;;;;;;5148808;27;20200;-89
2022/01/24 14:06:32;;;;;;;30.40;21.17;;;7.10;99.90;;;;;;5137148;27;20207;-89
2022/01/24 14:09:09;;;;;;;28.73;20.87;;;7.20;99.90;;;;;;5137487;27;20192;-90
2022/01/24 14:11:48;;;;;;;32.20;20.87;;;7.20;99.90;;;;;;5137473;27;20204;-89
2022/01/24 14:14:19;;;;;;;30.47;20.40;;;7.10;99.90;;;;;;5135525;27;20187;-88
2022/01/24 14:16:55;;;;;;;28.37;20.13;;;7.40;99.90;;;;;;5134937;27;20600;-89
2022/01/24 14:19:35;;;;;;;32.43;21.43;;;7.00;99.90;;;;;;5135088;27;20240;-87